createdAt,value
2022-08-14T00:00:17.778Z,28.33
2022-08-14T00:02:53.674Z,28.30
2022-08-14T00:05:26.386Z,28.26
2022-08-14T00:07:58.980Z,28.25
2022-08-14T00:10:51.220Z,28.19
2022-08-14T00:13:29.175Z,28.16
2022-08-14T00:16:05.052Z,28.13
2022-08-14T00:19:18.707Z,28.11
2022-08-14T00:21:36.821Z,28.06
2022-08-14T00:24:09.741Z,27.99
2022-08-14T00:26:42.301Z,27.95
2022-08-14T00:29:16.313Z,27.94
2022-08-14T00:31:48.902Z,27.89
2022-08-14T00:34:37.789Z,27.86
2022-08-14T00:37:19.982Z,27.82
2022-08-14T00:39:53.021Z,27.77
2022-08-14T00:42:55.600Z,27.72
2022-08-14T00:45:19.308Z,27.70
2022-08-14T00:47:55.103Z,27.69
2022-08-14T00:50:32.036Z,27.64
2022-08-14T00:53:10.490Z,27.57
2022-08-14T00:55:44.141Z,27.54
2022-08-14T00:58:32.459Z,27.57
2022-08-14T01:01:09.167Z,27.51
2022-08-14T01:03:44.715Z,27.46
2022-08-14T01:06:19.472Z,27.45
2022-08-14T01:08:59.203Z,27.41
2022-08-14T01:11:36.142Z,27.33
2022-08-14T01:14:25.367Z,27.34
2022-08-14T01:17:01.121Z,27.29
2022-08-14T01:19:53.779Z,27.22
2022-08-14T01:22:29.555Z,27.19
2022-08-14T01:25:02.429Z,27.18
2022-08-14T01:27:36.680Z,27.09
2022-08-14T01:30:36.557Z,27.12
2022-08-14T01:33:13.433Z,27.03
2022-08-14T01:36:04.561Z,27.00
2022-08-14T01:38:44.263Z,26.98
2022-08-14T01:41:29.968Z,26.98
2022-08-14T01:44:07.824Z,26.95
2022-08-14T01:47:05.977Z,26.92
2022-08-14T01:49:46.044Z,26.91
2022-08-14T01:52:59.644Z,26.85
2022-08-14T01:55:32.282Z,26.83
2022-08-14T01:58:20.046Z,26.82
2022-08-14T02:00:56.390Z,26.77
2022-08-14T02:03:31.365Z,26.72
2022-08-14T02:06:33.054Z,26.74
2022-08-14T02:08:58.091Z,26.74
2022-08-14T02:11:34.264Z,26.67
2022-08-14T02:14:10.149Z,26.66
2022-08-14T02:16:54.862Z,26.62
2022-08-14T02:19:31.667Z,26.61
2022-08-14T02:22:06.318Z,26.55
2022-08-14T02:24:45.163Z,26.56
2022-08-14T02:28:24.233Z,26.50
2022-08-14T02:30:16.435Z,26.47
2022-08-14T02:32:50.771Z,26.47
2022-08-14T02:35:26.611Z,26.41
2022-08-14T02:38:05.863Z,26.43
2022-08-14T02:40:45.440Z,26.40
2022-08-14T02:43:22.511Z,26.36
2022-08-14T02:45:55.577Z,26.29
2022-08-14T02:49:02.102Z,26.31
2022-08-14T02:51:24.924Z,26.29
2022-08-14T02:54:03.853Z,26.24
2022-08-14T02:57:15.833Z,26.18
2022-08-14T02:59:34.567Z,26.11
2022-08-14T03:02:07.526Z,26.08
2022-08-14T03:05:00.275Z,26.09
2022-08-14T03:07:33.206Z,26.08
2022-08-14T03:10:25.712Z,26.05
2022-08-14T03:13:00.609Z,26.04
2022-08-14T03:15:38.157Z,26.02
2022-08-14T03:18:12.375Z,25.99
2022-08-14T03:20:45.238Z,25.97
2022-08-14T03:23:20.100Z,25.91
2022-08-14T03:25:52.955Z,25.88
2022-08-14T03:28:29.545Z,25.84
2022-08-14T03:31:13.060Z,25.83
2022-08-14T03:33:51.831Z,25.77
2022-08-14T03:37:37.590Z,25.79
2022-08-14T03:39:22.823Z,25.80
2022-08-14T03:41:59.898Z,25.78
2022-08-14T03:45:19.032Z,25.73
2022-08-14T03:47:46.348Z,25.74
2022-08-14T03:50:27.525Z,25.67
2022-08-14T03:53:04.504Z,25.67
2022-08-14T03:55:38.877Z,25.67
2022-08-14T03:58:12.959Z,25.59
2022-08-14T04:00:56.738Z,25.57
2022-08-14T04:03:30.767Z,25.53
2022-08-14T04:06:03.922Z,25.55
2022-08-14T04:08:38.354Z,25.53
2022-08-14T04:11:15.962Z,25.48
2022-08-14T04:13:50.899Z,25.48
2022-08-14T04:16:23.860Z,25.43
2022-08-14T04:19:00.023Z,25.37
2022-08-14T04:21:39.702Z,25.30
2022-08-14T04:24:26.954Z,25.33
2022-08-14T04:27:00.617Z,25.32
2022-08-14T04:29:33.359Z,25.25
2022-08-14T04:33:01.887Z,25.24
2022-08-14T04:35:07.515Z,25.22
2022-08-14T04:38:01.015Z,25.23
2022-08-14T04:40:58.282Z,25.20
2022-08-14T04:43:39.259Z,25.16
2022-08-14T04:46:55.687Z,25.07
2022-08-14T04:49:08.082Z,25.12
2022-08-14T04:51:55.489Z,25.12
2022-08-14T04:54:28.951Z,25.06
2022-08-14T04:57:01.691Z,25.09
2022-08-14T04:59:35.359Z,25.05
2022-08-14T05:02:08.536Z,25.06
2022-08-14T05:04:45.178Z,25.01
2022-08-14T05:07:54.737Z,25.04
2022-08-14T05:10:26.282Z,25.07
2022-08-14T05:13:14.415Z,25.04
2022-08-14T05:15:48.874Z,25.05
2022-08-14T05:19:17.170Z,25.05
2022-08-14T05:21:59.373Z,25.09
2022-08-14T05:24:17.671Z,25.04
2022-08-14T05:26:51.882Z,25.01
2022-08-14T05:29:28.353Z,24.98
2022-08-14T05:32:06.369Z,24.98
2022-08-14T05:34:39.189Z,24.99
2022-08-14T05:37:12.760Z,24.94
2022-08-14T05:39:50.172Z,24.95
2022-08-14T05:42:29.413Z,24.90
2022-08-14T05:45:11.228Z,24.99
2022-08-14T05:47:46.151Z,24.98
2022-08-14T05:50:23.632Z,24.94
2022-08-14T05:52:56.573Z,24.93
2022-08-14T05:55:30.552Z,24.95
2022-08-14T05:58:06.913Z,24.95
2022-08-14T06:00:44.947Z,24.88
2022-08-14T06:03:19.961Z,24.88
2022-08-14T06:05:54.877Z,24.95
2022-08-14T06:08:35.639Z,24.90
2022-08-14T06:11:20.349Z,24.87
2022-08-14T06:14:03.673Z,24.92
2022-08-14T06:16:39.457Z,24.91
2022-08-14T06:19:14.624Z,24.92
2022-08-14T06:21:58.490Z,24.93
2022-08-14T06:24:35.677Z,24.90
2022-08-14T06:27:10.764Z,24.95
2022-08-14T06:29:43.701Z,24.91
2022-08-14T06:32:37.549Z,24.95
2022-08-14T06:35:13.639Z,24.99
2022-08-14T06:37:50.138Z,24.96
2022-08-14T06:40:27.154Z,25.01
2022-08-14T06:43:08.111Z,25.04
2022-08-14T06:45:44.185Z,25.04
2022-08-14T06:48:26.469Z,25.16
2022-08-14T06:51:00.747Z,25.18
2022-08-14T06:53:33.541Z,25.21
2022-08-14T06:56:06.198Z,25.32
2022-08-14T06:58:40.248Z,25.31
2022-08-14T07:01:45.421Z,25.40
2022-08-14T07:04:36.075Z,25.42
2022-08-14T07:07:08.820Z,25.51
2022-08-14T07:09:51.143Z,25.53
2022-08-14T07:12:52.131Z,25.66
2022-08-14T07:15:19.182Z,25.82
2022-08-14T07:17:53.991Z,25.87
2022-08-14T07:20:31.193Z,25.89
2022-08-14T07:23:09.405Z,26.01
2022-08-14T07:25:45.597Z,26.09
2022-08-14T07:28:23.505Z,26.22
2022-08-14T07:31:04.579Z,26.26
2022-08-14T07:33:41.721Z,26.33
2022-08-14T07:36:27.528Z,26.40
2022-08-14T07:39:13.228Z,26.54
2022-08-14T07:41:46.125Z,26.67
2022-08-14T07:44:29.363Z,26.77
2022-08-14T07:47:07.633Z,26.89
2022-08-14T07:49:42.091Z,27.10
2022-08-14T07:52:22.186Z,27.21
2022-08-14T07:55:04.773Z,27.38
2022-08-14T07:57:38.416Z,27.54
2022-08-14T08:00:31.038Z,27.70
2022-08-14T08:03:10.091Z,27.88
2022-08-14T08:05:44.007Z,27.92
2022-08-14T08:08:26.918Z,28.07
2022-08-14T08:11:03.716Z,28.26
2022-08-14T08:13:49.106Z,28.39
2022-08-14T08:16:29.546Z,28.49
2022-08-14T08:19:12.477Z,28.64
2022-08-14T08:21:46.889Z,28.75
2022-08-14T08:24:20.811Z,28.86
2022-08-14T08:26:53.701Z,28.95
2022-08-14T08:29:29.042Z,29.06
2022-08-14T08:32:05.993Z,29.23
2022-08-14T08:34:48.457Z,29.42
2022-08-14T08:37:21.821Z,29.53
2022-08-14T08:40:02.866Z,29.62
2022-08-14T08:42:38.353Z,29.79
2022-08-14T08:45:17.389Z,29.94
2022-08-14T08:47:51.926Z,30.11
2022-08-14T08:53:05.784Z,30.40
2022-08-14T08:55:40.596Z,30.58
2022-08-14T08:58:19.993Z,30.78
2022-08-14T09:00:56.530Z,30.86
2022-08-14T09:03:32.299Z,31.03
2022-08-14T09:06:26.609Z,31.11
2022-08-14T09:08:59.393Z,31.34
2022-08-14T09:11:32.003Z,31.26
2022-08-14T09:14:05.550Z,31.13
2022-08-14T09:16:38.538Z,31.01
2022-08-14T09:19:12.701Z,31.13
2022-08-14T09:21:47.347Z,31.35
2022-08-14T09:24:29.414Z,31.78
2022-08-14T09:27:06.865Z,31.66
2022-08-14T09:29:39.667Z,32.27
2022-08-14T09:32:59.402Z,31.88
2022-08-14T09:35:18.134Z,32.09
2022-08-14T09:38:06.339Z,32.16
2022-08-14T09:40:59.121Z,32.28
2022-08-14T09:43:44.426Z,32.18
2022-08-14T09:46:21.285Z,32.76
2022-08-14T09:49:02.527Z,33.16
2022-08-14T09:51:45.042Z,33.33
2022-08-14T09:54:38.638Z,33.24
2022-08-14T09:57:13.973Z,33.48
2022-08-14T09:59:50.377Z,33.87
2022-08-14T10:02:24.885Z,33.99
2022-08-14T10:05:02.840Z,34.16
2022-08-14T10:07:37.790Z,33.75
2022-08-14T10:10:23.309Z,33.81
2022-08-14T10:12:58.427Z,34.05
2022-08-14T10:15:33.218Z,34.48
2022-08-14T10:18:17.805Z,34.11
2022-08-14T10:20:58.249Z,34.31
2022-08-14T10:23:45.391Z,34.83
2022-08-14T10:26:22.692Z,34.74
2022-08-14T10:29:20.262Z,34.42
2022-08-14T10:31:59.171Z,35.06
2022-08-14T10:34:36.582Z,35.03
2022-08-14T10:37:14.563Z,35.45
2022-08-14T10:40:05.880Z,35.47
2022-08-14T10:42:46.923Z,35.16
2022-08-14T10:45:21.947Z,35.72
2022-08-14T10:48:07.711Z,35.35
2022-08-14T10:50:46.543Z,35.07
2022-08-14T10:53:37.083Z,35.44
2022-08-14T10:56:21.385Z,35.89
2022-08-14T10:59:08.718Z,36.01
2022-08-14T11:01:43.718Z,36.25
2022-08-14T11:04:28.556Z,36.98
2022-08-14T11:07:05.841Z,37.08
2022-08-14T11:09:41.713Z,37.34
2022-08-14T11:12:44.134Z,36.78
2022-08-14T11:15:10.081Z,37.05
2022-08-14T11:17:45.886Z,36.57
2022-08-14T11:20:24.017Z,36.42
2022-08-14T11:22:59.109Z,36.60
2022-08-14T11:25:43.243Z,36.94
2022-08-14T11:28:19.005Z,37.54
2022-08-14T11:30:57.415Z,37.76
2022-08-14T11:33:32.710Z,37.57
2022-08-14T11:36:18.459Z,38.10
2022-08-14T11:38:51.595Z,37.79
2022-08-14T11:41:28.069Z,37.44
2022-08-14T11:44:01.210Z,38.52
2022-08-14T11:46:39.427Z,39.02
2022-08-14T11:49:16.009Z,39.21
2022-08-14T11:51:54.647Z,38.66
2022-08-14T11:54:34.971Z,37.87
2022-08-14T11:57:15.131Z,37.26
2022-08-14T12:00:02.001Z,37.21
2022-08-14T12:03:02.747Z,37.73
2022-08-14T12:05:39.653Z,37.56
2022-08-14T12:08:13.484Z,38.02
2022-08-14T12:10:46.639Z,37.85
2022-08-14T12:13:22.465Z,37.73
2022-08-14T12:16:06.489Z,38.60
2022-08-14T12:18:50.862Z,38.21
2022-08-14T12:21:29.543Z,37.72
2022-08-14T12:24:08.341Z,37.97
2022-08-14T12:26:41.703Z,38.21
2022-08-14T12:29:16.118Z,38.53
2022-08-14T12:31:59.919Z,37.97
2022-08-14T12:34:37.010Z,38.43
2022-08-14T12:37:10.173Z,38.32
2022-08-14T12:39:44.847Z,38.52
2022-08-14T12:42:27.337Z,38.09
2022-08-14T12:45:12.119Z,38.16
2022-08-14T12:47:51.537Z,38.39
2022-08-14T12:50:36.017Z,38.51
2022-08-14T12:53:14.483Z,39.17
2022-08-14T12:56:21.671Z,39.19
2022-08-14T12:58:56.619Z,38.88
2022-08-14T13:02:01.905Z,38.91
2022-08-14T13:04:25.101Z,39.00
2022-08-14T13:07:08.575Z,38.00
2022-08-14T13:09:41.470Z,38.87
2022-08-14T13:12:34.834Z,38.39
2022-08-14T13:15:17.852Z,39.08
2022-08-14T13:17:56.422Z,39.36
2022-08-14T13:20:33.529Z,39.63
2022-08-14T13:23:08.967Z,39.07
2022-08-14T13:25:55.507Z,38.42
2022-08-14T13:28:32.978Z,38.34
2022-08-14T13:31:11.323Z,38.98
2022-08-14T13:33:45.596Z,39.82
2022-08-14T13:36:24.072Z,39.15
2022-08-14T13:39:16.110Z,40.50
2022-08-14T13:41:56.121Z,39.83
2022-08-14T13:44:32.736Z,40.14
2022-08-14T13:47:06.924Z,39.90
2022-08-14T13:49:57.097Z,39.97
2022-08-14T13:52:51.564Z,39.66
2022-08-14T13:55:31.034Z,39.98
2022-08-14T13:58:05.315Z,40.03
2022-08-14T14:00:52.957Z,40.63
2022-08-14T14:03:30.267Z,39.96
2022-08-14T14:06:05.022Z,40.18
2022-08-14T14:08:47.863Z,39.94
2022-08-14T14:11:25.496Z,39.94
2022-08-14T14:14:04.873Z,39.93
2022-08-14T14:16:37.954Z,40.01
2022-08-14T14:19:11.301Z,40.28
2022-08-14T14:21:45.474Z,40.60
2022-08-14T14:24:19.910Z,39.35
2022-08-14T14:26:56.015Z,39.70
2022-08-14T14:29:50.508Z,39.76
2022-08-14T14:32:31.266Z,39.96
2022-08-14T14:35:05.566Z,39.66
2022-08-14T14:37:40.611Z,39.22
2022-08-14T14:40:53.699Z,38.98
2022-08-14T14:43:13.220Z,39.03
2022-08-14T14:45:50.526Z,39.36
2022-08-14T14:48:31.440Z,39.54
2022-08-14T14:51:05.481Z,39.72
2022-08-14T14:53:40.202Z,39.29
2022-08-14T14:56:51.076Z,38.97
2022-08-14T14:59:07.609Z,38.25
2022-08-14T15:01:48.841Z,37.64
2022-08-14T15:04:21.687Z,38.95
2022-08-14T15:06:54.577Z,38.28
2022-08-14T15:09:27.557Z,39.10
2022-08-14T15:12:00.275Z,38.74
2022-08-14T15:14:56.630Z,39.20
2022-08-14T15:17:41.162Z,38.80
2022-08-14T15:20:17.247Z,38.68
2022-08-14T15:23:11.696Z,38.41
2022-08-14T15:25:53.127Z,38.80
2022-08-14T15:28:26.509Z,38.61
2022-08-14T15:31:01.189Z,38.20
2022-08-14T15:34:00.992Z,38.75
2022-08-14T15:36:46.527Z,38.75
2022-08-14T15:39:19.214Z,38.76
2022-08-14T15:41:52.383Z,38.31
2022-08-14T15:44:34.200Z,38.45
2022-08-14T15:47:11.160Z,38.31
2022-08-14T15:49:44.538Z,38.63
2022-08-14T15:52:32.688Z,37.86
2022-08-14T15:55:13.166Z,37.42
2022-08-14T15:58:01.769Z,37.08
2022-08-14T16:00:54.895Z,37.96
2022-08-14T16:03:35.697Z,38.16
2022-08-14T16:06:15.487Z,38.38
2022-08-14T16:08:58.974Z,38.02
2022-08-14T16:11:33.096Z,38.12
2022-08-14T16:14:06.940Z,38.37
2022-08-14T16:16:50.944Z,38.15
2022-08-14T16:19:32.750Z,38.23
2022-08-14T16:22:58.639Z,37.97
2022-08-14T16:25:18.205Z,37.89
2022-08-14T16:27:52.337Z,37.22
2022-08-14T16:30:27.866Z,37.72
2022-08-14T16:33:02.159Z,37.56
2022-08-14T16:35:43.100Z,37.44
2022-08-14T16:38:46.339Z,37.26
2022-08-14T16:41:26.309Z,37.10
2022-08-14T16:44:02.405Z,37.50
2022-08-14T16:46:42.926Z,37.29
2022-08-14T16:49:17.969Z,37.30
2022-08-14T16:51:54.130Z,36.97
2022-08-14T16:54:35.459Z,37.18
2022-08-14T16:57:22.342Z,37.10
2022-08-14T16:59:59.250Z,36.94
2022-08-14T17:02:44.961Z,36.94
2022-08-14T17:05:20.677Z,37.00
2022-08-14T17:08:32.737Z,36.96
2022-08-14T17:11:10.237Z,36.80
2022-08-14T17:13:58.754Z,36.79
2022-08-14T17:16:37.359Z,36.49
2022-08-14T17:19:14.034Z,36.63
2022-08-14T17:21:50.514Z,36.40
2022-08-14T17:24:56.400Z,36.43
2022-08-14T17:27:23.183Z,36.48
2022-08-14T17:29:57.868Z,36.47
2022-08-14T17:32:56.010Z,36.44
2022-08-14T17:35:57.566Z,35.58
2022-08-14T17:38:39.412Z,35.94
2022-08-14T17:41:32.678Z,35.95
2022-08-14T17:44:21.832Z,35.94
2022-08-14T17:46:58.572Z,35.98
2022-08-14T17:49:40.508Z,35.65
2022-08-14T17:52:17.636Z,35.72
2022-08-14T17:55:00.594Z,35.58
2022-08-14T17:57:40.869Z,35.77
2022-08-14T18:00:17.435Z,35.47
2022-08-14T18:02:52.106Z,35.53
2022-08-14T18:06:09.947Z,35.32
2022-08-14T18:08:33.654Z,35.36
2022-08-14T18:11:16.811Z,35.06
2022-08-14T18:13:52.754Z,35.10
2022-08-14T18:16:28.036Z,35.13
2022-08-14T18:19:04.348Z,34.88
2022-08-14T18:21:42.679Z,34.84
2022-08-14T18:24:31.785Z,34.81
2022-08-14T18:27:06.911Z,34.61
2022-08-14T18:29:55.371Z,34.56
2022-08-14T18:32:47.252Z,34.34
2022-08-14T18:35:56.890Z,34.42
2022-08-14T18:38:45.887Z,34.24
2022-08-14T18:41:37.455Z,34.16
2022-08-14T18:44:11.411Z,34.05
2022-08-14T18:47:23.635Z,34.11
2022-08-14T18:50:26.911Z,33.78
2022-08-14T18:53:07.301Z,33.83
2022-08-14T18:55:53.372Z,33.72
2022-08-14T18:58:31.492Z,33.66
2022-08-14T19:01:06.908Z,33.66
2022-08-14T19:03:50.254Z,33.47
2022-08-14T19:06:50.105Z,33.38
2022-08-14T19:09:58.749Z,33.24
2022-08-14T19:12:57.619Z,33.01
2022-08-14T19:15:36.002Z,32.99
2022-08-14T19:18:30.696Z,32.88
2022-08-14T19:21:27.384Z,32.78
2022-08-14T19:24:27.354Z,32.78
2022-08-14T19:27:23.722Z,32.68
2022-08-14T19:30:23.165Z,32.59
2022-08-14T19:33:02.615Z,32.33
2022-08-14T19:35:49.964Z,32.22
2022-08-14T19:38:51.951Z,31.92
2022-08-14T19:41:29.540Z,31.99
2022-08-14T19:44:11.620Z,32.03
2022-08-14T19:47:01.445Z,31.98
2022-08-14T19:50:08.442Z,31.97
2022-08-14T19:52:37.036Z,31.89
2022-08-14T19:55:17.896Z,31.80
2022-08-14T19:57:58.147Z,31.72
2022-08-14T20:00:31.736Z,31.63
2022-08-14T20:03:10.222Z,31.55
2022-08-14T20:05:46.245Z,31.48
2022-08-14T20:09:05.019Z,31.40
2022-08-14T20:12:00.798Z,31.24
2022-08-14T20:14:29.383Z,31.30
2022-08-14T20:17:06.572Z,31.16
2022-08-14T20:19:41.515Z,31.20
2022-08-14T20:22:35.678Z,31.14
2022-08-14T20:25:16.197Z,31.07
2022-08-14T20:27:58.821Z,31.01
2022-08-14T20:30:33.514Z,30.86
2022-08-14T20:33:11.241Z,30.78
2022-08-14T20:35:49.192Z,30.70
2022-08-14T20:38:31.458Z,30.59
2022-08-14T20:41:10.767Z,30.51
2022-08-14T20:44:06.531Z,30.47
2022-08-14T20:46:42.402Z,30.43
2022-08-14T20:49:18.573Z,30.44
2022-08-14T20:51:59.489Z,30.41
2022-08-14T20:54:36.258Z,30.32
2022-08-14T20:57:11.981Z,30.30
2022-08-14T20:59:53.083Z,30.25
2022-08-14T21:02:46.497Z,30.35
2022-08-14T21:05:34.004Z,30.24
2022-08-14T21:08:22.167Z,30.24
2022-08-14T21:10:58.784Z,30.09
2022-08-14T21:14:20.717Z,30.07
2022-08-14T21:16:34.990Z,30.34
2022-08-14T21:19:16.310Z,30.80
2022-08-14T21:21:55.019Z,30.90
2022-08-14T21:24:40.130Z,30.95
2022-08-14T21:27:23.027Z,30.90
2022-08-14T21:29:56.566Z,30.92
2022-08-14T21:32:47.038Z,30.89
2022-08-14T21:35:26.027Z,30.86
2022-08-14T21:37:58.913Z,30.82
2022-08-14T21:40:42.045Z,30.80
2022-08-14T21:43:21.175Z,30.75
2022-08-14T21:45:57.565Z,30.68
2022-08-14T21:48:34.135Z,30.64
2022-08-14T21:51:53.362Z,30.60
2022-08-14T21:54:04.154Z,30.52
2022-08-14T21:56:56.797Z,30.50
2022-08-14T21:59:34.159Z,30.37
2022-08-14T22:02:09.483Z,30.38
2022-08-14T22:05:03.396Z,30.34
2022-08-14T22:07:45.738Z,30.31
2022-08-14T22:10:22.934Z,30.25
2022-08-14T22:13:00.711Z,30.16
2022-08-14T22:15:35.478Z,30.13
2022-08-14T22:18:12.260Z,30.11
2022-08-14T22:20:56.809Z,30.03
2022-08-14T22:23:31.126Z,30.03
2022-08-14T22:26:07.471Z,30.03
2022-08-14T22:28:44.730Z,29.97
2022-08-14T22:31:22.298Z,29.89
2022-08-14T22:33:58.089Z,29.81
2022-08-14T22:36:50.570Z,29.82
2022-08-14T22:40:16.774Z,29.79
2022-08-14T22:42:22.673Z,29.72
2022-08-14T22:44:56.739Z,29.70
2022-08-14T22:47:34.614Z,29.68
2022-08-14T22:50:28.851Z,29.63
2022-08-14T22:53:05.946Z,29.61
2022-08-14T22:55:41.472Z,29.59
2022-08-14T22:58:17.186Z,29.52
2022-08-14T23:00:50.335Z,29.49
2022-08-14T23:03:23.818Z,29.44
2022-08-14T23:05:57.260Z,29.42
2022-08-14T23:08:57.534Z,29.39
2022-08-14T23:11:26.195Z,29.35
2022-08-14T23:14:02.374Z,29.34
2022-08-14T23:16:37.878Z,29.36
2022-08-14T23:19:11.631Z,29.30
2022-08-14T23:21:46.374Z,29.26
2022-08-14T23:24:27.054Z,29.22
2022-08-14T23:27:01.802Z,29.12
2022-08-14T23:29:42.177Z,29.08
2022-08-14T23:32:18.818Z,29.07
2022-08-14T23:34:54.371Z,28.97
2022-08-14T23:37:27.639Z,29.02
2022-08-14T23:40:02.382Z,29.05
2022-08-14T23:42:51.159Z,28.95
2022-08-14T23:45:36.910Z,28.92
2022-08-14T23:48:12.422Z,28.92
2022-08-14T23:50:46.356Z,28.93
2022-08-14T23:53:28.557Z,28.93
2022-08-14T23:56:17.020Z,28.88
2022-08-14T23:58:52.803Z,28.87
